CheckWX is a tool to help pilots better visualize weather data.  It is not intended as a substitute for an official pre-flight weather briefing.

14:28:43 UTC

CYXS METAR
Prince George Airport
Prince George, Canada
Current

1 hour ago

CYXS 161300Z AUTO 18005KT 9SM BKN110 11/09 A2997 RMK SLP154
Observed
Jul-16 @ 13:00 UTC
Wind
  • 180° at 5 KTS
Visibility
9 SM
Flight Rules
VFR
Cloud Levels
  • Broken at 11,000' AGL
Temperature
11°C / 52°F
Dewpoint
C / 48°F
Humidity
88%
Altimeter
29.97" Hg
Pressure
1014.92 hPa
Previous

2 hours ago

CYXS 161200Z AUTO 17005KT 9SM CLR 10/09 A2996 RMK SLP153
Observed
Jul-16 @ 12:00 UTC
Wind
  • 170° at 5 KTS
Visibility
9 SM
Flight Rules
VFR
Cloud Levels
  • Clear skies
Temperature
10°C / 50°F
Dewpoint
C / 48°F
Humidity
94%
Altimeter
29.96" Hg
Pressure
1014.52 hPa
Previous

3 hours ago

CYXS 161100Z AUTO 17005KT 9SM CLR 10/09 A2996 RMK SLP152
Observed
Jul-16 @ 11:00 UTC
Wind
  • 170° at 5 KTS
Visibility
9 SM
Flight Rules
VFR
Cloud Levels
  • Clear skies
Temperature
10°C / 50°F
Dewpoint
C / 48°F
Humidity
94%
Altimeter
29.96" Hg
Pressure
1014.52 hPa